Athens, GA

3:13 AM EDT on September 04, 2015 (GMT -0400)
Athens / Epps | | Change Station
CLOSE
Current Station
Airport
Location: Athens,
Elevation: 810 ft
Nearby Weather Stations

Elev 810 ft 33.95 °N, 83.33 °W | Updated 22 minutes ago

Clear
Clear
73 °F
Feels Like 73 °F
N
0
Wind Variable Wind from North

Today
High -- | Low -- °F
--% Chance of Precip.
Yesterday
High -- | Low -- °F
Precip. -- in
7:08 AM 7:55 PM
Waning Gibbous, 62% visible
Pressure 29.94 in
Visibility 10.0 miles
Clouds Clear
Dew Point 68 °F
Humidity 84%
Rainfall 0.00 in
Snow Depth Not available.
UV 0 out of 12
Pollen 8.60 out of 12
Air Quality Not available.
Flu Activity Not available.
METAR KAHN 040651Z AUTO 00000KT 10SM CLR 23/20 A2996 RMK AO2 SLP136 T02280200
Pressure 29.94 in
Visibility 10.0 miles
Clouds Clear
Dew Point 68 °F
Humidity 84%
Rainfall 0.00 in
Snow Depth Not available.
UV 0 out of 12
Pollen 8.60 out of 12
Air Quality Not available.
Flu Activity Not available.
METAR KAHN 040651Z AUTO 00000KT 10SM CLR 23/20 A2996 RMK AO2 SLP136 T02280200

10-Day Weather Forecast

×

Almanac

Astronomy

Sep. 04, 2015 Rise Set
Actual Time
Civil Twilight
Nautical Twilight
Astronomical Twilight
Moon
Length of Visible Light
Length of Day
Tomorrow will be .
, % of the Moon is Illuminated

Today's Extremes

State Highs State Lows

Community

WunderPhotos

Upload Photos

1,852,132 photos uploaded!

WunderBlogs® & News

Nearby

Air Quality

  Air Quality AQ Index Pollutant
Not available.

Snow Depth

Station Depth Elevation

Earthquake Activity

City Distance Mag. Time & Date
Minimum magnitude displayed is 2.5.

Coastal Water Temperatures

Place Temperature

Stations

Nearby Weather Stations

Station Location Temp. Windchill Dew Point Humidity Wind Precip. Elev Updated Type